Catàleg de serveis del Meteocat

Dades de l'estació automàtica Constantí

?
?
Resum diari 22:30 TU
Dades diàries de l'estació meteorològica
Temperatura mitjana 10.8 °C
Temperatura màxima 16.3 °C 12:47 TU
Temperatura mínima 6.3 °C 22:59 TU
Humitat relativa mitjana 89%
Precipitació acumulada 5.3 mm
Ratxa màxima del vent (10 m) 43.6 km/h - 319º 17:25 TU
Pressió atmosfèrica mitjana 1000.4 hPa
Irradiació solar global 4.8 MJ/m2

El tram horari està expressat en Temps Universal (TU). Cal sumar una hora en horari d'hivern i dues en horari d'estiu per passar a l'hora oficial.

Constantí

Metadades estació meteorol´gica
Municipi Constantí
Comarca Tarragonès
Altitud 112 m
Data alta 29.05.1990
Estat actual Operativa
Dades de període
Període
TU
TM
°C
TX
°C
TN
°C
HRM
%
PPT
mm
VVM (10 m)
km/h
DVM (10 m)
graus
VVX (10 m)
km/h
PM
hPa
RS
W/m2
00:00 - 00:30 9.5 9.9 9.4 95 0.0 7.6 274 12.2 1000.0 0
00:30 - 01:00 9.5 9.9 9.2 93 0.0 7.6 282 10.4 999.9 0
01:00 - 01:30 9.3 9.4 9.2 94 0.0 6.1 283 8.6 999.9 0
01:30 - 02:00 8.6 9.3 8.0 95 0.0 2.2 266 6.1 999.7 0
02:00 - 02:30 8.0 8.4 7.7 97 0.0 3.2 16 6.8 999.7 0
02:30 - 03:00 8.7 9.1 8.4 95 0.0 3.6 6 6.8 999.6 0
03:00 - 03:30 8.3 8.7 7.7 95 0.0 3.2 13 5.0 999.4 0
03:30 - 04:00 7.6 7.8 7.4 96 0.0 2.9 10 6.8 999.7 0
04:00 - 04:30 7.8 8.0 7.5 97 0.0 7.2 5 9.0 999.8 0
04:30 - 05:00 8.2 8.4 8.0 97 0.0 6.1 11 10.4 999.8 0
05:00 - 05:30 9.0 9.2 8.4 94 0.0 7.9 13 12.6 999.8 0
05:30 - 06:00 9.1 9.2 9.0 93 0.0 5.0 2 9.0 999.9 0
06:00 - 06:30 8.9 9.0 8.8 94 0.0 7.6 11 10.4 999.8 0
06:30 - 07:00 9.0 9.4 8.7 93 0.0 9.0 4 11.9 999.9 2
07:00 - 07:30 9.7 9.9 9.4 90 0.0 8.6 7 12.6 999.9 26
07:30 - 08:00 10.6 11.0 10.0 87 0.0 7.6 26 12.6 1000.1 95
08:00 - 08:30 11.2 11.3 11.0 87 0.0 6.5 35 10.1 1000.3 91
08:30 - 09:00 11.3 11.4 11.3 88 0.0 7.9 18 12.2 1000.3 55
09:00 - 09:30 11.8 12.0 11.5 86 0.0 7.9 11 13.3 1000.5 99
09:30 - 10:00 12.1 12.5 12.0 85 0.0 8.6 20 14.4 1000.7 118
10:00 - 10:30 12.8 13.2 12.5 81 0.0 9.4 28 15.1 1000.6 216
10:30 - 11:00 13.7 13.9 13.2 77 0.0 7.2 39 12.2 1000.4 250
11:00 - 11:30 13.8 14.1 13.7 75 0.0 4.3 57 7.9 1000.3 175
11:30 - 12:00 14.3 14.5 14.1 75 0.1 1.1 76 5.0 1000.1 136
12:00 - 12:30 14.9 15.8 14.3 75 0.1 2.2 10 5.4 999.8 321
12:30 - 13:00 15.4 16.3 15.0 72 0.0 3.2 277 7.9 999.4 408
13:00 - 13:30 15.5 16.1 15.2 73 0.0 2.9 293 7.6 999.3 217
13:30 - 14:00 15.2 15.4 15.0 76 0.0 3.6 246 9.0 999.4 147
14:00 - 14:30 15.2 15.4 15.0 76 0.0 2.9 165 6.5 999.3 130
14:30 - 15:00 15.0 15.3 14.9 78 0.0 3.6 184 8.6 999.3 86
15:00 - 15:30 14.8 14.9 14.7 80 0.0 4.3 169 10.4 999.3 64
15:30 - 16:00 14.6 14.7 14.4 81 0.0 5.0 149 10.1 999.4 46
16:00 - 16:30 13.9 14.4 13.0 85 0.0 2.5 102 6.1 999.4 14
16:30 - 17:00 12.3 12.9 12.0 93 0.0 4.3 53 9.0 999.5 0
17:00 - 17:30 12.2 13.3 9.2 88 3.2 15.1 353 43.6 999.9 1
17:30 - 18:00 9.3 9.4 9.1 94 1.6 9.4 344 37.8 1000.7 0
18:00 - 18:30 9.5 9.6 9.4 96 0.3 4.3 283 14.0 1001.1 0
18:30 - 19:00 9.6 9.7 9.6 97 0.0 6.5 342 11.5 1001.3 0
19:00 - 19:30 9.5 9.7 9.4 96 0.0 2.9 335 6.1 1001.5 0
19:30 - 20:00 9.3 9.4 9.1 97 0.0 2.5 198 6.5 1001.9 0
20:00 - 20:30 9.0 9.1 8.8 97 0.0 4.0 288 6.5 1002.3 0
20:30 - 21:00 8.5 8.7 8.2 98 0.0 3.6 354 9.4 1002.6 0
21:00 - 21:30 7.9 8.2 7.6 98 0.0 6.1 322 10.8 1002.8 0
21:30 - 22:00 7.6 7.7 7.4 97 0.0 7.2 356 10.8 1003.2 0
22:00 - 22:30 7.1 7.4 7.0 97 0.0 7.2 319 9.7 1003.6 0
22:30 - 23:00 6.7 7.0 6.3 97 0.0 4.7 0 8.3 1004.0 0

Les dades en taronja només han passat un control de qualitat automàtic. Resta pendent la seva validació definitiva.